createdAt,value
2022-08-05T00:00:16.378Z,12.74
2022-08-05T00:02:51.284Z,12.72
2022-08-05T00:06:01.699Z,12.69
2022-08-05T00:08:19.787Z,12.72
2022-08-05T00:10:54.245Z,12.73
2022-08-05T00:13:21.103Z,12.70
2022-08-05T00:16:06.557Z,12.80
2022-08-05T00:18:36.442Z,12.79
2022-08-05T00:21:06.452Z,12.78
2022-08-05T00:23:45.919Z,12.79
2022-08-05T00:26:15.240Z,12.74
2022-08-05T00:28:43.744Z,12.78
2022-08-05T00:31:13.116Z,12.78
2022-08-05T00:34:54.423Z,12.82
2022-08-05T00:37:10.379Z,12.77
2022-08-05T00:39:14.206Z,12.70
2022-08-05T00:41:55.083Z,12.72
2022-08-05T00:44:30.644Z,12.70
2022-08-05T00:47:02.165Z,12.74
2022-08-05T00:49:32.356Z,12.68
2022-08-05T00:52:00.512Z,12.66
2022-08-05T00:54:28.081Z,12.60
2022-08-05T00:56:57.018Z,12.61
2022-08-05T00:59:24.009Z,12.60
2022-08-05T01:01:51.300Z,12.58
2022-08-05T01:04:20.189Z,12.59
2022-08-05T01:06:53.805Z,12.59
2022-08-05T01:09:22.793Z,12.58
2022-08-05T01:11:52.293Z,12.54
2022-08-05T01:14:36.544Z,12.55
2022-08-05T01:17:21.711Z,12.48
2022-08-05T01:20:03.843Z,12.54
2022-08-05T01:22:57.495Z,12.54
2022-08-05T01:25:41.543Z,12.41
2022-08-05T01:28:08.792Z,12.43
2022-08-05T01:30:40.132Z,12.41
2022-08-05T01:33:25.323Z,12.37
2022-08-05T01:35:57.474Z,12.33
2022-08-05T01:38:29.165Z,12.32
2022-08-05T01:40:59.915Z,12.27
2022-08-05T01:43:29.834Z,12.22
2022-08-05T01:46:07.533Z,12.14
2022-08-05T01:48:49.838Z,12.07
2022-08-05T01:51:18.856Z,12.00
2022-08-05T01:53:58.048Z,12.04
2022-08-05T01:58:11.959Z,12.05
2022-08-05T01:59:23.002Z,12.04
2022-08-05T02:01:54.820Z,12.03
2022-08-05T02:04:24.344Z,12.09
2022-08-05T02:06:52.849Z,12.11
2022-08-05T02:09:20.653Z,12.08
2022-08-05T02:12:12.611Z,12.15
2022-08-05T02:14:52.701Z,12.10
2022-08-05T02:18:27.482Z,12.08
2022-08-05T02:20:20.596Z,12.16
2022-08-05T02:22:51.908Z,12.13
2022-08-05T02:25:24.900Z,12.21
2022-08-05T02:27:58.516Z,12.19
2022-08-05T02:30:34.386Z,12.14
2022-08-05T02:33:03.855Z,12.13
2022-08-05T02:35:38.620Z,12.06
2022-08-05T02:38:19.322Z,12.01
2022-08-05T02:40:47.574Z,12.00
2022-08-05T02:43:16.967Z,11.98
2022-08-05T02:45:51.477Z,11.97
2022-08-05T02:48:29.015Z,11.90
2022-08-05T02:51:00.214Z,11.89
2022-08-05T02:53:39.148Z,11.87
2022-08-05T02:56:08.665Z,11.89
2022-08-05T02:58:37.275Z,11.98
2022-08-05T03:01:17.418Z,11.98
2022-08-05T03:04:02.836Z,11.89
2022-08-05T03:06:53.575Z,11.91
2022-08-05T03:09:36.569Z,11.95
2022-08-05T03:12:05.752Z,11.95
2022-08-05T03:14:32.763Z,11.92
2022-08-05T03:17:00.787Z,11.95
2022-08-05T03:19:34.148Z,11.98
2022-08-05T03:22:03.113Z,12.00
2022-08-05T03:24:32.104Z,12.02
2022-08-05T03:27:00.881Z,12.07
2022-08-05T03:29:45.733Z,12.05
2022-08-05T03:32:15.775Z,11.99
2022-08-05T03:34:50.633Z,12.07
2022-08-05T03:37:20.586Z,12.09
2022-08-05T03:40:01.158Z,12.08
2022-08-05T03:42:32.239Z,12.13
2022-08-05T03:45:01.778Z,12.10
2022-08-05T03:47:46.714Z,12.09
2022-08-05T03:50:16.184Z,12.02
2022-08-05T03:55:00.395Z,12.01
2022-08-05T03:56:27.802Z,12.05
2022-08-05T03:59:01.299Z,11.98
2022-08-05T04:01:32.131Z,12.02
2022-08-05T04:04:09.884Z,12.00
2022-08-05T04:06:47.555Z,11.91
2022-08-05T04:09:20.317Z,11.88
2022-08-05T04:11:53.469Z,11.84
2022-08-05T04:14:30.437Z,11.76
2022-08-05T04:17:00.211Z,11.72
2022-08-05T04:19:28.900Z,11.57
2022-08-05T04:22:09.009Z,11.60
2022-08-05T04:24:52.328Z,11.47
2022-08-05T04:27:41.967Z,11.40
2022-08-05T04:30:08.732Z,11.31
2022-08-05T04:32:35.945Z,11.23
2022-08-05T04:35:04.687Z,11.23
2022-08-05T04:38:02.371Z,11.17
2022-08-05T04:40:19.926Z,11.11
2022-08-05T04:42:46.873Z,11.03
2022-08-05T04:45:14.171Z,11.00
2022-08-05T04:47:49.857Z,10.87
2022-08-05T04:50:37.564Z,10.80
2022-08-05T04:53:04.656Z,10.80
2022-08-05T04:56:14.274Z,10.77
2022-08-05T04:58:21.504Z,10.80
2022-08-05T05:00:50.644Z,10.70
2022-08-05T05:03:18.825Z,10.68
2022-08-05T05:06:36.516Z,10.68
2022-08-05T05:08:36.866Z,10.66
2022-08-05T05:11:10.680Z,10.63
2022-08-05T05:13:43.369Z,10.65
2022-08-05T05:16:10.648Z,10.65
2022-08-05T05:18:38.567Z,10.65
2022-08-05T05:21:05.718Z,10.69
2022-08-05T05:24:02.078Z,10.74
2022-08-05T05:26:28.752Z,10.83
2022-08-05T05:28:59.863Z,10.93
2022-08-05T05:31:26.720Z,10.94
2022-08-05T05:33:59.294Z,10.97
2022-08-05T05:36:28.759Z,11.05
2022-08-05T05:38:57.412Z,11.12
2022-08-05T05:41:24.534Z,11.16
2022-08-05T05:43:56.892Z,11.25
2022-08-05T05:46:26.827Z,11.30
2022-08-05T05:48:53.619Z,11.36
2022-08-05T05:51:25.666Z,11.46
2022-08-05T05:53:57.284Z,11.56
2022-08-05T05:56:32.618Z,11.63
2022-08-05T05:59:06.720Z,11.75
2022-08-05T06:01:38.961Z,11.83
2022-08-05T06:04:12.739Z,11.95
2022-08-05T06:06:47.688Z,12.06
2022-08-05T06:09:35.377Z,12.17
2022-08-05T06:12:04.284Z,12.29
2022-08-05T06:14:31.787Z,12.30
2022-08-05T06:17:02.150Z,12.37
2022-08-05T06:19:56.542Z,12.52
2022-08-05T06:22:33.911Z,12.55
2022-08-05T06:25:59.251Z,12.60
2022-08-05T06:28:09.002Z,12.74
2022-08-05T06:30:37.370Z,12.79
2022-08-05T06:33:04.188Z,12.90
2022-08-05T06:36:03.685Z,12.99
2022-08-05T06:38:17.839Z,13.01
2022-08-05T06:41:03.734Z,13.12
2022-08-05T06:43:58.000Z,13.14
2022-08-05T06:46:18.505Z,13.22
2022-08-05T06:48:56.455Z,13.30
2022-08-05T06:51:29.744Z,13.38
2022-08-05T06:54:02.017Z,13.42
2022-08-05T06:56:29.890Z,13.59
2022-08-05T06:59:00.290Z,13.71
2022-08-05T07:01:32.195Z,13.79
2022-08-05T07:04:02.309Z,13.74
2022-08-05T07:06:29.568Z,13.82
2022-08-05T07:08:56.468Z,13.83
2022-08-05T07:11:28.078Z,13.86
2022-08-05T07:14:20.657Z,13.88
2022-08-05T07:17:59.946Z,13.86
2022-08-05T07:22:42.123Z,13.89
2022-08-05T07:25:54.153Z,14.03
2022-08-05T07:28:02.709Z,14.17
2022-08-05T07:30:34.761Z,14.16
2022-08-05T07:33:09.900Z,14.34
2022-08-05T07:36:02.115Z,14.29
2022-08-05T07:38:33.932Z,14.37
2022-08-05T07:42:08.709Z,14.51
2022-08-05T07:43:58.514Z,14.50
2022-08-05T07:46:30.829Z,14.43
2022-08-05T07:49:05.018Z,14.54
2022-08-05T07:51:36.610Z,14.50
2022-08-05T07:54:08.446Z,14.59
2022-08-05T07:56:39.382Z,14.69
2022-08-05T07:59:39.117Z,14.59
2022-08-05T08:02:16.985Z,14.77
2022-08-05T08:04:48.184Z,14.78
2022-08-05T08:07:17.975Z,14.70
2022-08-05T08:09:49.591Z,14.66
2022-08-05T08:12:33.507Z,14.60
2022-08-05T08:15:09.737Z,14.71
2022-08-05T08:17:46.140Z,14.81
2022-08-05T08:20:42.834Z,14.98
2022-08-05T08:24:00.104Z,15.06
2022-08-05T08:26:00.952Z,15.11
2022-08-05T08:28:36.259Z,15.15
2022-08-05T08:31:08.445Z,15.29
2022-08-05T08:33:37.994Z,15.34
2022-08-05T08:36:40.183Z,15.42
2022-08-05T08:38:55.790Z,15.57
2022-08-05T08:41:26.279Z,15.85
2022-08-05T08:45:18.646Z,16.05
2022-08-05T08:47:47.179Z,15.93
2022-08-05T08:50:22.300Z,16.09
2022-08-05T08:52:42.717Z,15.81
2022-08-05T08:55:19.488Z,15.73
2022-08-05T08:58:02.174Z,15.94
2022-08-05T09:00:30.735Z,16.11
2022-08-05T09:02:58.526Z,16.30
2022-08-05T09:05:38.664Z,15.99
2022-08-05T09:08:13.088Z,16.00
2022-08-05T09:10:43.488Z,16.04
2022-08-05T09:13:15.695Z,16.21
2022-08-05T09:15:42.999Z,16.27
2022-08-05T09:18:13.362Z,16.41
2022-08-05T09:20:42.071Z,16.39
2022-08-05T09:23:18.677Z,16.64
2022-08-05T09:26:02.518Z,16.57
2022-08-05T09:28:33.857Z,16.37
2022-08-05T09:31:22.522Z,16.36
2022-08-05T09:34:01.588Z,16.37
2022-08-05T09:36:55.228Z,16.57
2022-08-05T09:39:39.507Z,16.57
2022-08-05T09:42:23.391Z,16.68
2022-08-05T09:44:56.734Z,16.63
2022-08-05T09:47:48.041Z,16.72
2022-08-05T09:50:18.144Z,17.05
2022-08-05T09:53:01.366Z,17.14
2022-08-05T09:55:57.872Z,16.99
2022-08-05T09:58:22.921Z,16.80
2022-08-05T10:01:01.247Z,16.39
2022-08-05T10:03:38.761Z,16.23
2022-08-05T10:06:20.624Z,16.44
2022-08-05T10:08:50.337Z,16.63
2022-08-05T10:11:21.044Z,16.66
2022-08-05T10:13:49.350Z,16.87
2022-08-05T10:16:32.124Z,16.97
2022-08-05T10:19:08.565Z,16.83
2022-08-05T10:21:40.507Z,17.01
2022-08-05T10:24:13.521Z,17.12
2022-08-05T10:26:48.977Z,17.06
2022-08-05T10:29:23.440Z,17.06
2022-08-05T10:32:54.989Z,16.91
2022-08-05T10:34:37.866Z,16.98
2022-08-05T10:37:08.329Z,17.02
2022-08-05T10:39:59.417Z,17.21
2022-08-05T10:42:32.565Z,17.48
2022-08-05T10:45:02.099Z,17.49
2022-08-05T10:48:31.892Z,17.56
2022-08-05T10:51:00.900Z,18.05
2022-08-05T10:53:38.410Z,18.15
2022-08-05T10:56:25.313Z,18.33
2022-08-05T10:58:55.843Z,18.10
2022-08-05T11:01:55.438Z,17.99
2022-08-05T11:04:23.459Z,17.90
2022-08-05T11:07:01.856Z,17.62
2022-08-05T11:09:45.486Z,17.59
2022-08-05T11:12:43.847Z,17.81
2022-08-05T11:16:00.894Z,17.81
2022-08-05T11:18:34.680Z,17.97
2022-08-05T11:21:11.609Z,17.99
2022-08-05T11:24:04.503Z,17.78
2022-08-05T11:26:43.402Z,17.79
2022-08-05T11:29:38.311Z,17.90
2022-08-05T11:32:30.534Z,18.03
2022-08-05T11:34:57.783Z,17.88
2022-08-05T11:38:28.238Z,17.84
2022-08-05T11:41:34.591Z,18.25
2022-08-05T11:44:11.066Z,18.54
2022-08-05T11:47:09.937Z,18.36
2022-08-05T11:49:36.535Z,18.41
2022-08-05T11:52:08.405Z,18.72
2022-08-05T11:54:40.678Z,18.60
2022-08-05T11:57:25.041Z,18.50
2022-08-05T11:59:55.571Z,18.68
2022-08-05T12:02:33.420Z,18.69
2022-08-05T12:05:07.067Z,18.80
2022-08-05T12:08:07.310Z,18.62
2022-08-05T12:10:38.638Z,18.77
2022-08-05T12:13:15.482Z,18.77
2022-08-05T12:15:49.709Z,18.89
2022-08-05T12:18:32.843Z,18.99
2022-08-05T12:21:31.849Z,19.37
2022-08-05T12:24:07.248Z,19.38
2022-08-05T12:26:43.820Z,19.46
2022-08-05T12:29:22.794Z,19.10
2022-08-05T12:31:53.752Z,18.90
2022-08-05T12:34:26.861Z,19.17
2022-08-05T12:36:56.418Z,19.16
2022-08-05T12:39:34.523Z,19.15
2022-08-05T12:42:14.908Z,18.98
2022-08-05T12:44:44.673Z,18.67
2022-08-05T12:47:13.784Z,18.62
2022-08-05T12:50:03.165Z,18.82
2022-08-05T12:52:41.841Z,19.07
2022-08-05T12:55:23.932Z,19.37
2022-08-05T12:58:48.830Z,19.57
2022-08-05T13:02:02.360Z,19.30
2022-08-05T13:03:33.021Z,19.48
2022-08-05T13:06:01.866Z,19.47
2022-08-05T13:08:30.335Z,19.37
2022-08-05T13:11:04.189Z,19.51
2022-08-05T13:14:05.545Z,19.58
2022-08-05T13:16:20.339Z,19.23
2022-08-05T13:18:58.351Z,19.29
2022-08-05T13:21:28.497Z,19.30
2022-08-05T13:24:09.379Z,19.37
2022-08-05T13:26:40.289Z,19.13
2022-08-05T13:29:07.907Z,19.12
2022-08-05T13:32:04.047Z,19.13
2022-08-05T13:34:26.082Z,18.93
2022-08-05T13:36:54.352Z,18.94
2022-08-05T13:39:24.757Z,18.79
2022-08-05T13:42:14.364Z,18.43
2022-08-05T13:44:45.682Z,18.62
2022-08-05T13:47:35.625Z,18.82
2022-08-05T13:50:04.469Z,18.93
2022-08-05T13:52:35.547Z,19.01
2022-08-05T13:55:08.036Z,19.11
2022-08-05T13:57:50.592Z,19.10
2022-08-05T14:00:27.633Z,19.01
2022-08-05T14:02:56.637Z,19.04
2022-08-05T14:05:48.518Z,18.94
2022-08-05T14:08:21.253Z,18.69
2022-08-05T14:11:03.287Z,18.68
2022-08-05T14:13:48.144Z,18.75
2022-08-05T14:16:17.192Z,18.82
2022-08-05T14:18:47.580Z,18.99
2022-08-05T14:22:07.690Z,19.15
2022-08-05T14:24:02.431Z,19.15
2022-08-05T14:26:38.675Z,19.15
2022-08-05T14:29:16.324Z,19.21
2022-08-05T14:32:03.672Z,19.12
2022-08-05T14:34:35.315Z,19.03
2022-08-05T14:37:04.370Z,18.97
2022-08-05T14:39:49.679Z,18.59
2022-08-05T14:42:20.627Z,18.48
2022-08-05T14:44:56.824Z,18.52
2022-08-05T14:48:02.840Z,18.29
2022-08-05T14:50:19.693Z,18.14
2022-08-05T14:52:56.844Z,18.14
2022-08-05T14:55:38.768Z,18.27
2022-08-05T14:58:11.358Z,18.46
2022-08-05T15:00:58.722Z,18.46
2022-08-05T15:03:33.788Z,18.59
2022-08-05T15:06:13.490Z,18.94
2022-08-05T15:09:01.072Z,18.99
2022-08-05T15:11:51.127Z,19.13
2022-08-05T15:14:33.979Z,19.09
2022-08-05T15:17:05.014Z,18.67
2022-08-05T15:19:40.138Z,18.34
2022-08-05T15:22:16.121Z,18.16
2022-08-05T15:24:48.593Z,18.06
2022-08-05T15:27:17.284Z,17.65
2022-08-05T15:29:52.604Z,17.49
2022-08-05T15:32:21.313Z,17.63
2022-08-05T15:34:55.877Z,17.62
2022-08-05T15:38:34.667Z,17.69
2022-08-05T15:41:01.026Z,17.72
2022-08-05T15:43:08.008Z,17.62
2022-08-05T15:45:45.542Z,17.92
2022-08-05T15:48:14.284Z,18.06
2022-08-05T15:50:43.860Z,18.10
2022-08-05T15:53:13.209Z,18.24
2022-08-05T15:56:03.166Z,18.37
2022-08-05T15:58:36.891Z,18.28
2022-08-05T16:01:16.060Z,18.11
2022-08-05T16:03:48.506Z,17.99
2022-08-05T16:06:20.931Z,17.85
2022-08-05T16:08:55.319Z,17.72
2022-08-05T16:11:42.984Z,17.58
2022-08-05T16:14:09.566Z,17.34
2022-08-05T16:16:36.804Z,17.19
2022-08-05T16:19:04.162Z,17.35
2022-08-05T16:22:00.777Z,17.55
2022-08-05T16:24:39.986Z,17.71
2022-08-05T16:27:07.329Z,17.68
2022-08-05T16:29:37.237Z,17.65
2022-08-05T16:32:09.559Z,17.64
2022-08-05T16:34:42.550Z,17.64
2022-08-05T16:38:03.236Z,17.74
2022-08-05T16:40:06.295Z,17.75
2022-08-05T16:42:35.760Z,17.64
2022-08-05T16:45:06.217Z,17.72
2022-08-05T16:47:54.425Z,17.62
2022-08-05T16:50:24.427Z,17.57
2022-08-05T16:52:51.474Z,17.61
2022-08-05T16:55:20.468Z,17.66
2022-08-05T16:58:00.109Z,17.54
2022-08-05T17:00:34.961Z,17.54
2022-08-05T17:03:03.701Z,17.64
2022-08-05T17:05:36.959Z,17.58
2022-08-05T17:08:04.705Z,17.55
2022-08-05T17:10:31.578Z,17.31
2022-08-05T17:12:58.449Z,17.33
2022-08-05T17:15:29.481Z,17.18
2022-08-05T17:18:14.132Z,17.48
2022-08-05T17:20:42.218Z,17.77
2022-08-05T17:24:03.609Z,17.86
2022-08-05T17:25:58.848Z,17.98
2022-08-05T17:28:25.964Z,17.73
2022-08-05T17:30:57.679Z,17.72
2022-08-05T17:33:26.862Z,17.53
2022-08-05T17:36:31.674Z,17.40
2022-08-05T17:38:54.155Z,17.56
2022-08-05T17:42:20.088Z,17.42
2022-08-05T17:44:11.248Z,17.43
2022-08-05T17:46:38.296Z,17.49
2022-08-05T17:49:05.443Z,17.48
2022-08-05T17:51:40.583Z,17.54
2022-08-05T17:54:08.411Z,17.43
2022-08-05T17:56:36.790Z,17.37
2022-08-05T17:59:04.644Z,17.23
2022-08-05T18:01:49.213Z,17.24
2022-08-05T18:04:21.487Z,16.95
2022-08-05T18:06:55.164Z,16.87
2022-08-05T18:09:28.448Z,16.79
2022-08-05T18:12:22.183Z,16.78
2022-08-05T18:14:51.763Z,16.85
2022-08-05T18:18:01.035Z,16.86
2022-08-05T18:20:13.892Z,16.90
2022-08-05T18:22:54.643Z,16.97
2022-08-05T18:25:25.161Z,16.97
2022-08-05T18:27:59.492Z,16.84
2022-08-05T18:30:32.452Z,16.76
2022-08-05T18:33:00.168Z,16.77
2022-08-05T18:36:01.294Z,16.65
2022-08-05T18:38:16.464Z,16.43
2022-08-05T18:41:56.228Z,16.37
2022-08-05T18:43:38.146Z,16.39
2022-08-05T18:46:10.826Z,16.38
2022-08-05T18:48:41.875Z,16.40
2022-08-05T18:52:06.203Z,16.34
2022-08-05T18:54:15.860Z,16.16
2022-08-05T18:56:51.023Z,16.14
2022-08-05T18:59:44.143Z,16.00
2022-08-05T19:02:26.991Z,16.02
2022-08-05T19:05:02.291Z,15.94
2022-08-05T19:07:46.275Z,15.97
2022-08-05T19:10:18.750Z,15.97
2022-08-05T19:12:53.669Z,15.78
2022-08-05T19:15:57.696Z,15.72
2022-08-05T19:18:09.343Z,15.65
2022-08-05T19:20:41.361Z,15.51
2022-08-05T19:24:03.588Z,15.43
2022-08-05T19:26:01.786Z,15.35
2022-08-05T19:28:33.098Z,15.36
2022-08-05T19:31:00.423Z,15.29
2022-08-05T19:33:35.483Z,15.27
2022-08-05T19:36:09.014Z,15.28
2022-08-05T19:38:36.679Z,15.19
2022-08-05T19:41:07.237Z,15.07
2022-08-05T19:44:06.429Z,15.03
2022-08-05T19:46:29.815Z,15.01
2022-08-05T19:49:03.048Z,14.92
2022-08-05T19:51:59.850Z,14.89
2022-08-05T19:54:25.564Z,14.81
2022-08-05T19:57:02.388Z,14.85
2022-08-05T19:59:54.891Z,14.79
2022-08-05T20:02:18.961Z,14.66
2022-08-05T20:04:48.375Z,14.61
2022-08-05T20:07:46.772Z,14.61
2022-08-05T20:10:13.626Z,14.50
2022-08-05T20:12:45.957Z,14.52
2022-08-05T20:15:23.454Z,14.41
2022-08-05T20:18:10.320Z,14.33
2022-08-05T20:20:56.501Z,14.31
2022-08-05T20:23:40.502Z,14.27
2022-08-05T20:26:16.097Z,14.25
2022-08-05T20:28:48.890Z,14.15
2022-08-05T20:31:21.949Z,14.17
2022-08-05T20:33:55.509Z,14.23
2022-08-05T20:36:24.292Z,14.19
2022-08-05T20:38:53.794Z,14.11
2022-08-05T20:41:24.204Z,14.02
2022-08-05T20:43:58.744Z,14.04
2022-08-05T20:46:30.084Z,13.98
2022-08-05T20:48:57.143Z,13.94
2022-08-05T20:51:24.094Z,13.89
2022-08-05T20:53:56.460Z,13.92
2022-08-05T20:56:29.742Z,13.86
2022-08-05T20:59:00.042Z,13.87
2022-08-05T21:01:39.028Z,13.83
2022-08-05T21:04:10.873Z,13.81
2022-08-05T21:06:45.385Z,13.70
2022-08-05T21:09:15.549Z,13.68
2022-08-05T21:12:07.034Z,13.62
2022-08-05T21:14:34.608Z,13.57
2022-08-05T21:17:04.965Z,13.51
2022-08-05T21:19:46.611Z,13.41
2022-08-05T21:22:18.631Z,13.29
2022-08-05T21:24:51.853Z,13.16
2022-08-05T21:27:25.306Z,13.09
2022-08-05T21:29:56.504Z,13.08
2022-08-05T21:32:26.834Z,13.09
2022-08-05T21:35:17.526Z,13.14
2022-08-05T21:37:47.118Z,13.10
2022-08-05T21:40:14.724Z,13.00
2022-08-05T21:42:44.820Z,12.96
2022-08-05T21:45:17.657Z,12.90
2022-08-05T21:47:56.649Z,12.90
2022-08-05T21:50:26.455Z,12.95
2022-08-05T21:52:58.778Z,12.95
2022-08-05T21:56:00.842Z,12.90
2022-08-05T21:58:12.975Z,12.79
2022-08-05T22:00:40.175Z,12.74
2022-08-05T22:03:07.441Z,12.59
2022-08-05T22:05:48.538Z,12.51
2022-08-05T22:08:22.141Z,12.41
2022-08-05T22:10:51.834Z,12.39
2022-08-05T22:14:34.386Z,12.45
2022-08-05T22:16:32.310Z,12.38
2022-08-05T22:18:54.060Z,12.37
2022-08-05T22:21:25.752Z,12.38
2022-08-05T22:24:13.210Z,12.36
2022-08-05T22:27:17.370Z,12.33
2022-08-05T22:29:44.390Z,12.29
2022-08-05T22:32:17.481Z,12.25
2022-08-05T22:34:44.552Z,12.23
2022-08-05T22:37:13.304Z,12.25
2022-08-05T22:39:40.400Z,12.26
2022-08-05T22:42:12.361Z,12.28
2022-08-05T22:44:53.742Z,12.35
2022-08-05T22:47:29.423Z,12.42
2022-08-05T22:50:20.885Z,12.37
2022-08-05T22:52:44.138Z,12.39
2022-08-05T22:55:18.905Z,12.35
2022-08-05T22:57:48.977Z,12.31
2022-08-05T23:00:17.858Z,12.21
2022-08-05T23:02:48.305Z,12.19
2022-08-05T23:05:16.271Z,12.16
2022-08-05T23:07:44.770Z,12.15
2022-08-05T23:10:15.097Z,12.11
2022-08-05T23:12:43.918Z,12.08
2022-08-05T23:15:11.920Z,11.99
2022-08-05T23:18:02.348Z,11.98
2022-08-05T23:20:25.816Z,11.98
2022-08-05T23:22:55.838Z,12.01
2022-08-05T23:25:54.697Z,11.99
2022-08-05T23:28:11.188Z,11.94
2022-08-05T23:30:43.472Z,11.86
2022-08-05T23:33:22.140Z,11.80
2022-08-05T23:35:55.969Z,11.66
2022-08-05T23:38:26.964Z,11.49
2022-08-05T23:40:53.989Z,11.28
2022-08-05T23:43:25.206Z,11.17
2022-08-05T23:46:05.182Z,11.12
2022-08-05T23:48:59.710Z,11.16
2022-08-05T23:51:53.926Z,11.14
2022-08-05T23:54:34.265Z,11.12
2022-08-05T23:57:05.786Z,11.10
